createdAt,value
2023-03-28T00:01:12.906Z,99512.91
2023-03-28T00:03:40.397Z,99504.88
2023-03-28T00:06:11.239Z,99520.09
2023-03-28T00:08:39.459Z,99521.72
2023-03-28T00:11:12.581Z,99519.44
2023-03-28T00:13:39.140Z,99520.78
2023-03-28T00:16:12.864Z,99513.78
2023-03-28T00:18:41.396Z,99520.66
2023-03-28T00:21:25.615Z,99521.78
2023-03-28T00:23:53.704Z,99519.50
2023-03-28T00:26:24.624Z,99510.56
2023-03-28T00:28:51.975Z,99520.53
2023-03-28T00:31:18.726Z,99513.59
2023-03-28T00:33:47.541Z,99517.91
2023-03-28T00:36:18.612Z,99518.50
2023-03-28T00:38:45.950Z,99523.25
2023-03-28T00:41:15.916Z,99529.03
2023-03-28T00:43:47.311Z,99517.84
2023-03-28T00:46:21.243Z,99520.41
2023-03-28T00:48:52.752Z,99510.09
2023-03-28T00:51:25.944Z,99517.03
2023-03-28T00:53:58.044Z,99513.84
2023-03-28T00:56:25.541Z,99513.78
2023-03-28T00:58:52.545Z,99520.25
2023-03-28T01:01:20.574Z,99519.03
2023-03-28T01:03:52.261Z,99519.19
2023-03-28T01:06:21.567Z,99523.63
2023-03-28T01:08:48.987Z,99526.28
2023-03-28T01:11:16.428Z,99524.63
2023-03-28T01:13:48.383Z,99526.13
2023-03-28T01:16:15.920Z,99518.66
2023-03-28T01:18:47.049Z,99525.09
2023-03-28T01:21:48.847Z,99529.69
2023-03-28T01:24:18.124Z,99525.75
2023-03-28T01:27:44.075Z,99525.84
2023-03-28T01:30:34.084Z,99525.63
2023-03-28T01:33:16.001Z,99526.84
2023-03-28T01:36:10.339Z,99523.44
2023-03-28T01:38:54.704Z,99527.19
2023-03-28T01:41:29.021Z,99525.16
2023-03-28T01:44:22.105Z,99519.38
2023-03-28T01:46:59.971Z,99518.25
2023-03-28T01:49:42.037Z,99514.22
2023-03-28T01:52:31.446Z,99516.97
2023-03-28T01:55:06.733Z,99512.47
2023-03-28T01:57:41.389Z,99510.72
2023-03-28T02:00:21.535Z,99506.31
2023-03-28T02:03:00.834Z,99513.47
2023-03-28T02:05:29.483Z,99503.97
2023-03-28T02:07:57.842Z,99507.47
2023-03-28T02:10:27.210Z,99500.91
2023-03-28T02:13:01.959Z,99499.09
2023-03-28T02:15:31.110Z,99506.78
2023-03-28T02:18:03.365Z,99497.72
2023-03-28T02:20:32.830Z,99499.66
2023-03-28T02:23:27.101Z,99496.66
2023-03-28T02:25:53.669Z,99489.31
2023-03-28T02:28:21.894Z,99484.81
2023-03-28T02:30:48.813Z,99481.69
2023-03-28T02:33:39.664Z,99483.91
2023-03-28T02:36:15.510Z,99479.69
2023-03-28T02:39:03.888Z,99472.69
2023-03-28T02:41:58.328Z,99475.28
2023-03-28T02:44:36.922Z,99478.97
2023-03-28T02:47:06.407Z,99468.56
2023-03-28T02:49:52.191Z,99470.03
2023-03-28T02:52:35.383Z,99467.94
2023-03-28T02:55:13.320Z,99469.22
2023-03-28T02:57:48.800Z,99467.66
2023-03-28T03:00:19.315Z,99464.59
2023-03-28T03:02:49.390Z,99464.44
2023-03-28T03:05:17.643Z,99458.53
2023-03-28T03:07:44.188Z,99458.50
2023-03-28T03:10:12.248Z,99465.19
2023-03-28T03:12:39.147Z,99465.88
2023-03-28T03:15:07.277Z,99463.97
2023-03-28T03:17:33.787Z,99469.66
2023-03-28T03:20:02.590Z,99463.50
2023-03-28T03:22:29.109Z,99463.31
2023-03-28T03:24:56.543Z,99458.50
2023-03-28T03:27:22.974Z,99456.44
2023-03-28T03:29:49.428Z,99455.59
2023-03-28T03:32:15.929Z,99448.16
2023-03-28T03:34:42.453Z,99455.50
2023-03-28T03:37:09.586Z,99451.88
2023-03-28T03:39:36.328Z,99460.47
2023-03-28T03:42:04.066Z,99450.66
2023-03-28T03:44:30.584Z,99449.00
2023-03-28T03:46:57.910Z,99449.53
2023-03-28T03:49:24.566Z,99457.38
2023-03-28T03:51:51.673Z,99461.03
2023-03-28T03:54:18.613Z,99451.13
2023-03-28T03:56:46.070Z,99459.41
2023-03-28T03:59:12.708Z,99457.94
2023-03-28T04:01:39.990Z,99460.31
2023-03-28T04:04:07.664Z,99463.56
2023-03-28T04:06:34.462Z,99459.03
2023-03-28T04:09:00.945Z,99474.81
2023-03-28T04:11:27.456Z,99468.72
2023-03-28T04:13:53.908Z,99472.41
2023-03-28T04:16:20.879Z,99466.47
2023-03-28T04:18:50.785Z,99481.00
2023-03-28T04:21:20.765Z,99470.75
2023-03-28T04:23:48.366Z,99478.91
2023-03-28T04:26:15.492Z,99480.59
2023-03-28T04:28:42.068Z,99476.19
2023-03-28T04:31:12.100Z,99481.97
2023-03-28T04:33:40.172Z,99477.25
2023-03-28T04:36:07.990Z,99490.50
2023-03-28T04:38:37.909Z,99492.88
2023-03-28T04:41:05.442Z,99496.34
2023-03-28T04:43:32.401Z,99491.81
2023-03-28T04:45:59.854Z,99498.00
2023-03-28T04:48:27.485Z,99494.00
2023-03-28T04:50:54.795Z,99507.94
2023-03-28T04:53:22.379Z,99510.22
2023-03-28T04:55:50.223Z,99514.94
2023-03-28T04:58:22.304Z,99524.25
2023-03-28T05:00:49.841Z,99520.56
2023-03-28T05:03:19.114Z,99518.59
2023-03-28T05:05:47.840Z,99519.28
2023-03-28T05:08:16.473Z,99527.03
2023-03-28T05:10:45.223Z,99529.69
2023-03-28T05:13:12.212Z,99527.50
2023-03-28T05:15:38.806Z,99532.84
2023-03-28T05:18:05.757Z,99535.16
2023-03-28T05:20:33.334Z,99539.31
2023-03-28T05:23:01.171Z,99533.25
2023-03-28T05:25:27.711Z,99536.84
2023-03-28T05:27:54.392Z,99530.31
2023-03-28T05:30:21.090Z,99537.94
2023-03-28T05:32:47.654Z,99538.81
2023-03-28T05:35:16.158Z,99531.44
2023-03-28T05:37:46.250Z,99546.03
2023-03-28T05:40:14.432Z,99549.66
2023-03-28T05:42:41.146Z,99557.66
2023-03-28T05:45:09.780Z,99555.50
2023-03-28T05:47:36.395Z,99555.34
2023-03-28T05:50:03.785Z,99548.19
2023-03-28T05:52:30.379Z,99555.72
2023-03-28T05:54:57.461Z,99549.53
2023-03-28T05:57:25.140Z,99545.25
2023-03-28T05:59:51.738Z,99550.13
2023-03-28T06:02:20.835Z,99542.22
2023-03-28T06:04:47.686Z,99551.03
2023-03-28T06:07:14.896Z,99561.28
2023-03-28T06:09:42.165Z,99558.47
2023-03-28T06:12:08.758Z,99556.88
2023-03-28T06:14:35.320Z,99565.81
2023-03-28T06:17:01.832Z,99572.34
2023-03-28T06:19:28.480Z,99564.28
2023-03-28T06:21:55.104Z,99564.50
2023-03-28T06:24:22.095Z,99559.97
2023-03-28T06:26:48.539Z,99559.69
2023-03-28T06:29:16.239Z,99571.84
2023-03-28T06:31:42.914Z,99567.97
2023-03-28T06:34:09.476Z,99572.31
2023-03-28T06:36:36.112Z,99574.13
2023-03-28T06:39:02.704Z,99567.66
2023-03-28T06:41:29.217Z,99565.34
2023-03-28T06:43:55.831Z,99560.53
2023-03-28T06:46:22.358Z,99559.06
2023-03-28T06:48:48.887Z,99559.75
2023-03-28T06:51:15.489Z,99550.06
2023-03-28T06:53:42.003Z,99550.47
2023-03-28T06:56:09.008Z,99548.38
2023-03-28T06:58:35.605Z,99544.38
2023-03-28T07:01:02.569Z,99548.41
2023-03-28T07:03:30.288Z,99543.44
2023-03-28T07:05:57.083Z,99548.34
2023-03-28T07:08:24.233Z,99557.53
2023-03-28T07:10:50.933Z,99553.63
2023-03-28T07:13:17.485Z,99547.56
2023-03-28T07:15:43.984Z,99541.94
2023-03-28T07:18:10.742Z,99555.09
2023-03-28T07:20:40.744Z,99552.81
2023-03-28T07:23:07.460Z,99553.34
2023-03-28T07:25:34.603Z,99557.84
2023-03-28T07:28:01.163Z,99561.44
2023-03-28T07:30:27.647Z,99561.41
2023-03-28T07:33:03.966Z,99557.66
2023-03-28T07:35:41.191Z,99555.03
2023-03-28T07:38:08.093Z,99549.66
2023-03-28T07:40:34.599Z,99550.84
2023-03-28T07:43:01.306Z,99546.16
2023-03-28T07:45:27.977Z,99552.38
2023-03-28T07:47:54.611Z,99550.66
2023-03-28T07:50:23.591Z,99557.59
2023-03-28T07:52:57.359Z,99554.59
2023-03-28T07:55:26.251Z,99557.59
2023-03-28T07:57:53.176Z,99555.44
2023-03-28T08:00:22.698Z,99559.25
2023-03-28T08:02:50.061Z,99555.78
2023-03-28T08:05:17.409Z,99559.00
2023-03-28T08:07:46.043Z,99551.50
2023-03-28T08:10:14.070Z,99560.38
2023-03-28T08:12:40.721Z,99555.69
2023-03-28T08:15:07.858Z,99555.97
2023-03-28T08:17:34.829Z,99556.34
2023-03-28T08:20:01.466Z,99551.91
2023-03-28T08:22:28.016Z,99553.09
2023-03-28T08:24:54.502Z,99553.47
2023-03-28T08:27:21.082Z,99559.31
2023-03-28T08:29:47.824Z,99555.13
2023-03-28T08:32:14.463Z,99554.94
2023-03-28T08:34:41.256Z,99543.34
2023-03-28T08:37:08.369Z,99543.16
2023-03-28T08:39:35.079Z,99546.03
2023-03-28T08:42:05.848Z,99547.78
2023-03-28T08:44:59.810Z,99542.84
2023-03-28T08:47:30.046Z,99543.03
2023-03-28T08:50:13.433Z,99544.22
2023-03-28T08:52:40.839Z,99543.66
2023-03-28T08:55:28.117Z,99541.44
2023-03-28T08:57:55.903Z,99538.81
2023-03-28T09:00:28.008Z,99534.09
2023-03-28T09:02:55.070Z,99532.22
2023-03-28T09:05:44.438Z,99539.22
2023-03-28T09:08:32.521Z,99533.41
2023-03-28T09:11:17.604Z,99533.91
2023-03-28T09:13:54.126Z,99517.84
2023-03-28T09:16:39.374Z,99513.16
2023-03-28T09:19:10.854Z,99508.81
2023-03-28T09:21:48.507Z,99511.16
2023-03-28T09:25:17.679Z,99508.81
2023-03-28T09:28:06.291Z,99508.03
2023-03-28T09:30:37.613Z,99518.16
2023-03-28T09:33:10.999Z,99518.03
2023-03-28T09:35:39.638Z,99514.31
2023-03-28T09:38:21.094Z,99515.94
2023-03-28T09:40:49.367Z,99524.22
2023-03-28T09:43:26.660Z,99517.59
2023-03-28T09:46:04.900Z,99518.41
2023-03-28T09:48:37.323Z,99508.06
2023-03-28T09:51:06.007Z,99510.78
2023-03-28T09:53:35.306Z,99510.34
2023-03-28T09:56:13.173Z,99514.53
2023-03-28T09:59:02.365Z,99496.47
2023-03-28T10:01:37.742Z,99495.84
2023-03-28T10:04:19.878Z,99497.56
2023-03-28T10:06:48.208Z,99493.56
2023-03-28T10:09:20.746Z,99496.06
2023-03-28T10:12:13.230Z,99490.31
2023-03-28T10:14:43.196Z,99489.16
2023-03-28T10:17:25.899Z,99489.50
2023-03-28T10:19:58.761Z,99489.25
2023-03-28T10:22:37.838Z,99482.63
2023-03-28T10:25:07.340Z,99477.56
2023-03-28T10:27:35.402Z,99474.09
2023-03-28T10:30:17.945Z,99468.00
2023-03-28T10:32:44.580Z,99484.47
2023-03-28T10:35:27.917Z,99476.44
2023-03-28T10:37:55.312Z,99467.88
2023-03-28T10:40:22.412Z,99470.72
2023-03-28T10:42:52.520Z,99464.75
2023-03-28T10:45:20.784Z,99468.44
2023-03-28T10:47:50.567Z,99475.56
2023-03-28T10:50:40.661Z,99478.03
2023-03-28T10:53:10.520Z,99468.56
2023-03-28T10:55:41.806Z,99456.88
2023-03-28T10:58:52.944Z,99458.22
2023-03-28T11:01:22.211Z,99462.66
2023-03-28T11:03:57.931Z,99456.03
2023-03-28T11:06:40.540Z,99453.88
2023-03-28T11:09:13.355Z,99450.31
2023-03-28T11:12:07.147Z,99454.66
2023-03-28T11:15:07.895Z,99448.53
2023-03-28T11:18:22.495Z,99438.59
2023-03-28T11:21:12.635Z,99441.75
2023-03-28T11:23:49.043Z,99445.63
2023-03-28T11:26:27.027Z,99440.25
2023-03-28T11:29:25.902Z,99436.34
2023-03-28T11:32:17.738Z,99431.09
2023-03-28T11:34:47.931Z,99432.75
2023-03-28T11:37:26.840Z,99424.28
2023-03-28T11:40:13.910Z,99422.66
2023-03-28T11:42:51.645Z,99411.13
2023-03-28T11:45:41.932Z,99416.50
2023-03-28T11:48:29.109Z,99397.75
2023-03-28T11:51:06.411Z,99411.75
2023-03-28T11:53:51.565Z,99405.63
2023-03-28T11:56:23.356Z,99397.91
2023-03-28T11:58:56.634Z,99391.41
2023-03-28T12:01:29.126Z,99385.59
2023-03-28T12:03:59.004Z,99380.44
2023-03-28T12:07:03.478Z,99371.72
2023-03-28T12:09:57.512Z,99356.72
2023-03-28T12:12:27.317Z,99357.78
2023-03-28T12:15:02.182Z,99357.22
2023-03-28T12:17:34.380Z,99363.19
2023-03-28T12:20:00.939Z,99357.06
2023-03-28T12:22:36.380Z,99358.84
2023-03-28T12:25:17.756Z,99351.56
2023-03-28T12:28:01.273Z,99351.66
2023-03-28T12:30:37.212Z,99338.91
2023-03-28T12:33:18.520Z,99345.69
2023-03-28T12:36:09.539Z,99338.38
2023-03-28T12:38:47.082Z,99337.34
2023-03-28T12:41:21.233Z,99337.66
2023-03-28T12:43:58.325Z,99331.81
2023-03-28T12:46:29.708Z,99332.41
2023-03-28T12:49:05.897Z,99323.81
2023-03-28T12:51:43.133Z,99321.75
2023-03-28T12:54:24.043Z,99320.91
2023-03-28T12:57:08.594Z,99318.16
2023-03-28T12:59:39.851Z,99311.75
2023-03-28T13:02:33.395Z,99308.50
2023-03-28T13:05:22.934Z,99305.63
2023-03-28T13:08:00.391Z,99294.94
2023-03-28T13:10:41.737Z,99292.22
2023-03-28T13:13:35.922Z,99305.81
2023-03-28T13:16:22.487Z,99287.00
2023-03-28T13:19:05.511Z,99284.03
2023-03-28T13:21:44.641Z,99290.97
2023-03-28T13:24:26.396Z,99284.28
2023-03-28T13:27:00.752Z,99280.78
2023-03-28T13:29:58.461Z,99276.91
2023-03-28T13:32:25.919Z,99265.28
2023-03-28T13:34:57.833Z,99258.47
2023-03-28T13:37:26.741Z,99259.22
2023-03-28T13:39:59.186Z,99258.72
2023-03-28T13:42:34.554Z,99246.63
2023-03-28T13:45:14.333Z,99244.38
2023-03-28T13:47:42.348Z,99238.06
2023-03-28T13:50:26.562Z,99239.19
2023-03-28T13:52:53.069Z,99251.75
2023-03-28T13:55:24.304Z,99233.50
2023-03-28T13:57:52.264Z,99231.75
2023-03-28T14:00:24.266Z,99214.88
2023-03-28T14:02:53.404Z,99210.91
2023-03-28T14:05:24.443Z,99225.75
2023-03-28T14:07:52.901Z,99222.22
2023-03-28T14:10:32.526Z,99208.16
2023-03-28T14:13:03.760Z,99208.97
2023-03-28T14:15:36.156Z,99203.72
2023-03-28T14:18:03.532Z,99201.81
2023-03-28T14:20:33.129Z,99202.72
2023-03-28T14:23:01.614Z,99196.97
2023-03-28T14:25:28.809Z,99194.88
2023-03-28T14:27:56.984Z,99191.84
2023-03-28T14:30:23.647Z,99187.22
2023-03-28T14:32:58.847Z,99200.00
2023-03-28T14:35:31.640Z,99198.66
2023-03-28T14:38:01.624Z,99196.91
2023-03-28T14:40:38.076Z,99201.28
2023-03-28T14:43:07.323Z,99192.19
2023-03-28T14:45:37.618Z,99190.25
2023-03-28T14:48:08.717Z,99190.16
2023-03-28T14:50:40.554Z,99171.59
2023-03-28T14:53:12.600Z,99169.56
2023-03-28T14:55:41.813Z,99172.38
2023-03-28T14:58:12.870Z,99163.41
2023-03-28T15:00:45.168Z,99162.03
2023-03-28T15:03:16.654Z,99160.22
2023-03-28T15:05:45.355Z,99157.22
2023-03-28T15:08:34.113Z,99155.25
2023-03-28T15:11:12.856Z,99158.31
2023-03-28T15:13:41.675Z,99145.63
2023-03-28T15:16:09.245Z,99132.28
2023-03-28T15:18:44.329Z,99133.88
2023-03-28T15:21:11.724Z,99127.56
2023-03-28T15:23:48.354Z,99130.09
2023-03-28T15:26:26.247Z,99129.94
2023-03-28T15:28:55.869Z,99126.19
2023-03-28T15:31:22.679Z,99133.53
2023-03-28T15:33:51.784Z,99124.63
2023-03-28T15:36:22.664Z,99128.13
2023-03-28T15:38:51.380Z,99136.91
2023-03-28T15:41:41.113Z,99136.16
2023-03-28T15:44:31.111Z,99131.19
2023-03-28T15:47:07.328Z,99128.41
2023-03-28T15:49:36.781Z,99124.41
2023-03-28T15:52:09.380Z,99120.44
2023-03-28T15:54:42.199Z,99130.03
2023-03-28T15:57:14.467Z,99123.03
2023-03-28T15:59:45.263Z,99117.19
2023-03-28T16:02:23.775Z,99103.31
2023-03-28T16:05:16.681Z,99101.31
2023-03-28T16:07:46.181Z,99109.13
2023-03-28T16:10:15.520Z,99095.97
2023-03-28T16:12:43.011Z,99094.56
2023-03-28T16:15:10.034Z,99095.38
2023-03-28T16:17:36.718Z,99101.69
2023-03-28T16:20:13.673Z,99093.03
2023-03-28T16:22:40.157Z,99088.63
2023-03-28T16:25:06.969Z,99081.41
2023-03-28T16:27:34.911Z,99079.34
2023-03-28T16:30:04.362Z,99074.81
2023-03-28T16:32:30.823Z,99082.25
2023-03-28T16:34:57.963Z,99087.16
2023-03-28T16:37:24.503Z,99085.53
2023-03-28T16:39:51.434Z,99079.91
2023-03-28T16:42:20.859Z,99078.50
2023-03-28T16:44:47.578Z,99070.09
2023-03-28T16:47:15.571Z,99073.59
2023-03-28T16:49:42.122Z,99070.41
2023-03-28T16:52:08.643Z,99067.78
2023-03-28T16:54:35.180Z,99076.72
2023-03-28T16:57:02.511Z,99082.72
2023-03-28T16:59:29.060Z,99087.63
2023-03-28T17:01:56.024Z,99089.72
2023-03-28T17:04:22.576Z,99082.25
2023-03-28T17:06:49.193Z,99084.13
2023-03-28T17:09:16.007Z,99071.88
2023-03-28T17:11:42.962Z,99064.66
2023-03-28T17:14:09.582Z,99055.81
2023-03-28T17:16:40.247Z,99046.53
2023-03-28T17:19:07.417Z,99040.78
2023-03-28T17:21:35.030Z,99041.09
2023-03-28T17:24:02.090Z,99033.75
2023-03-28T17:26:28.664Z,99032.50
2023-03-28T17:28:58.241Z,99031.09
2023-03-28T17:31:25.091Z,99028.88
2023-03-28T17:33:51.667Z,99028.56
2023-03-28T17:36:22.429Z,99035.38
2023-03-28T17:38:56.296Z,99046.63
2023-03-28T17:41:23.464Z,99054.81
2023-03-28T17:43:51.252Z,99047.69
2023-03-28T17:46:18.533Z,99051.44
2023-03-28T17:48:45.834Z,99039.38
2023-03-28T17:51:12.590Z,99035.66
2023-03-28T17:53:40.153Z,99030.63
2023-03-28T17:56:07.239Z,99023.69
2023-03-28T17:58:34.443Z,99023.72
2023-03-28T18:01:01.248Z,99014.22
2023-03-28T18:03:28.579Z,99024.19
2023-03-28T18:06:00.402Z,99025.25
2023-03-28T18:08:28.489Z,99028.75
2023-03-28T18:11:00.851Z,99025.38
2023-03-28T18:13:27.562Z,99022.22
2023-03-28T18:15:54.153Z,99029.47
2023-03-28T18:18:20.654Z,99024.19
2023-03-28T18:20:47.264Z,99008.28
2023-03-28T18:23:14.057Z,99014.13
2023-03-28T18:25:41.300Z,99021.50
2023-03-28T18:28:07.876Z,99023.97
2023-03-28T18:30:34.330Z,99010.53
2023-03-28T18:33:00.952Z,99016.97
2023-03-28T18:35:27.777Z,99006.28
2023-03-28T18:37:54.277Z,99007.00
2023-03-28T18:40:20.748Z,99005.94
2023-03-28T18:42:47.361Z,99000.34
2023-03-28T18:45:13.884Z,98989.66
2023-03-28T18:47:41.134Z,98994.72
2023-03-28T18:50:10.405Z,98983.50
2023-03-28T18:52:37.575Z,98979.78
2023-03-28T18:55:07.514Z,98980.00
2023-03-28T18:57:34.978Z,98978.50
2023-03-28T19:00:02.038Z,98973.22
2023-03-28T19:02:29.007Z,98983.75
2023-03-28T19:04:56.180Z,98987.25
2023-03-28T19:07:22.691Z,98991.00
2023-03-28T19:09:49.330Z,98997.91
2023-03-28T19:12:16.415Z,98999.44
2023-03-28T19:14:42.894Z,99014.63
2023-03-28T19:17:09.636Z,99006.81
2023-03-28T19:19:37.559Z,99009.25
2023-03-28T19:22:06.336Z,99008.66
2023-03-28T19:24:33.823Z,99008.44
2023-03-28T19:27:02.589Z,98999.44
2023-03-28T19:29:32.157Z,99009.84
2023-03-28T19:31:58.780Z,99012.06
2023-03-28T19:34:25.332Z,99014.03
2023-03-28T19:36:51.899Z,99023.28
2023-03-28T19:39:18.614Z,99022.81
2023-03-28T19:41:45.114Z,99021.84
2023-03-28T19:44:11.636Z,99017.63
2023-03-28T19:46:38.889Z,99013.44
2023-03-28T19:49:06.552Z,99012.38
2023-03-28T19:51:33.878Z,99010.41
2023-03-28T19:54:00.712Z,99019.31
2023-03-28T19:56:27.407Z,99032.81
2023-03-28T19:58:53.912Z,99047.56
2023-03-28T20:01:20.736Z,99056.78
2023-03-28T20:03:52.244Z,99060.53
2023-03-28T20:06:20.412Z,99057.50
2023-03-28T20:08:47.152Z,99070.38
2023-03-28T20:11:14.773Z,99059.03
2023-03-28T20:13:42.005Z,99029.78
2023-03-28T20:16:09.877Z,99059.47
2023-03-28T20:18:37.141Z,99059.81
2023-03-28T20:21:07.150Z,99019.16
2023-03-28T20:23:33.727Z,99013.09
2023-03-28T20:26:01.641Z,99008.41
2023-03-28T20:28:32.600Z,99013.19
2023-03-28T20:30:59.476Z,99021.13
2023-03-28T20:33:26.288Z,99042.25
2023-03-28T20:35:54.766Z,99048.75
2023-03-28T20:38:21.679Z,99053.41
2023-03-28T20:40:48.386Z,99046.22
2023-03-28T20:43:20.116Z,99063.50
2023-03-28T20:45:53.668Z,99065.03
2023-03-28T20:48:34.280Z,99050.19
2023-03-28T20:51:14.421Z,99046.16
2023-03-28T20:53:42.092Z,99054.69
2023-03-28T20:56:09.562Z,99058.13
2023-03-28T20:58:38.908Z,99054.03
2023-03-28T21:01:09.101Z,99042.28
2023-03-28T21:03:53.327Z,99033.66
2023-03-28T21:06:25.227Z,99029.09
2023-03-28T21:08:54.197Z,99013.22
2023-03-28T21:11:23.760Z,99015.25
2023-03-28T21:13:50.635Z,98998.06
2023-03-28T21:16:17.369Z,98990.13
2023-03-28T21:18:44.737Z,99000.50
2023-03-28T21:21:13.268Z,98992.16
2023-03-28T21:23:41.009Z,98978.50
2023-03-28T21:26:13.010Z,98964.63
2023-03-28T21:28:40.066Z,98948.50
2023-03-28T21:31:18.377Z,98943.41
2023-03-28T21:33:46.695Z,98946.16
2023-03-28T21:36:16.282Z,98946.56
2023-03-28T21:38:44.443Z,98944.75
2023-03-28T21:41:12.146Z,98945.22
2023-03-28T21:43:38.982Z,98946.84
2023-03-28T21:46:07.611Z,98939.31
2023-03-28T21:48:34.682Z,98932.38
2023-03-28T21:51:01.734Z,98927.28
2023-03-28T21:53:31.840Z,98923.38
2023-03-28T21:55:59.569Z,98927.78
2023-03-28T21:58:28.687Z,98925.25
2023-03-28T22:00:55.769Z,98923.00
2023-03-28T22:03:22.720Z,98917.28
2023-03-28T22:05:54.733Z,98918.88
2023-03-28T22:08:22.364Z,98912.44
2023-03-28T22:11:01.218Z,98920.22
2023-03-28T22:13:29.716Z,98925.19
2023-03-28T22:16:00.265Z,98934.09
2023-03-28T22:18:27.873Z,98923.63
2023-03-28T22:20:54.608Z,98913.25
2023-03-28T22:23:23.329Z,98917.34
2023-03-28T22:25:50.768Z,98913.19
2023-03-28T22:28:18.603Z,98905.44
2023-03-28T22:30:45.178Z,98908.28
2023-03-28T22:33:13.458Z,98913.66
2023-03-28T22:35:40.355Z,98897.91
2023-03-28T22:38:06.858Z,98891.44
2023-03-28T22:40:33.810Z,98885.13
2023-03-28T22:43:00.707Z,98882.47
2023-03-28T22:45:27.624Z,98884.13
2023-03-28T22:47:54.270Z,98869.38
2023-03-28T22:50:22.613Z,98874.50
2023-03-28T22:52:52.671Z,98885.84
2023-03-28T22:55:22.332Z,98875.41
2023-03-28T22:57:51.666Z,98867.16
2023-03-28T23:00:21.573Z,98869.00
2023-03-28T23:02:48.773Z,98883.56
2023-03-28T23:05:15.617Z,98877.34
2023-03-28T23:07:42.152Z,98869.84
2023-03-28T23:10:14.410Z,98883.31
2023-03-28T23:12:42.477Z,98888.69
2023-03-28T23:15:09.357Z,98887.44
2023-03-28T23:17:36.280Z,98886.16
2023-03-28T23:20:09.914Z,98878.88
2023-03-28T23:22:37.091Z,98879.50
2023-03-28T23:25:03.846Z,98882.97
2023-03-28T23:27:30.432Z,98891.53
2023-03-28T23:29:56.959Z,98889.28
2023-03-28T23:32:23.727Z,98899.94
2023-03-28T23:34:50.227Z,98904.44
2023-03-28T23:37:16.758Z,98919.94
2023-03-28T23:39:44.667Z,98918.25
2023-03-28T23:42:11.166Z,98914.56
2023-03-28T23:44:38.013Z,98916.19
2023-03-28T23:47:04.593Z,98910.97
2023-03-28T23:49:31.075Z,98911.13
2023-03-28T23:51:57.593Z,98900.88
2023-03-28T23:54:25.806Z,98894.09
2023-03-28T23:56:52.558Z,98888.34
2023-03-28T23:59:19.205Z,98900.03
